Time,TemperatureF,DewpointF,PressureIn,WindDirection,WindDirectionDegrees,WindSpeedMPH,WindSpeedGustMPH,Humidity,HourlyPrecipIn,Conditions,Clouds,dailyrainin,SoftwareType,DateUTC
2013-04-02 00:02:00,31.0,-99.9,-100.00,NNW,333,4.0,6.0,-999,0.00,,,0.00,,2013-04-02 05:02:00,
2013-04-02 00:12:00,31.0,-99.9,-100.00,NNW,333,4.0,6.0,-999,0.00,,,0.00,,2013-04-02 05:12:00,
2013-04-02 00:23:00,31.0,-99.9,-100.00,NNW,333,4.0,6.0,-999,0.00,,,0.00,,2013-04-02 05:23:00,
2013-04-02 00:33:00,30.0,-99.9,-100.00,NW,305,3.0,5.0,-999,0.00,,,0.00,,2013-04-02 05:33:00,
2013-04-02 00:43:00,30.0,-99.9,-100.00,NW,305,3.0,5.0,-999,0.00,,,0.00,,2013-04-02 05:43:00,
2013-04-02 00:53:00,30.0,-99.9,-100.00,NW,305,3.0,5.0,-999,0.00,,,0.00,,2013-04-02 05:53:00,
2013-04-02 01:03:00,29.0,-99.9,-100.00,NW,306,4.0,6.0,-999,0.00,,,0.00,,2013-04-02 06:03:00,
2013-04-02 01:12:00,29.0,-99.9,-100.00,NW,306,4.0,6.0,-999,0.00,,,0.00,,2013-04-02 06:12:00,
2013-04-02 01:22:00,29.0,-99.9,-100.00,NW,306,4.0,6.0,-999,0.00,,,0.00,,2013-04-02 06:22:00,
2013-04-02 01:30:00,28.0,-99.9,-100.00,NW,304,1.0,2.0,-999,0.00,,,0.00,,2013-04-02 06:30:00,
2013-04-02 01:32:00,29.0,-99.9,-100.00,NNE,20,3.0,4.0,-999,0.00,,,0.00,,2013-04-02 06:32:00,
2013-04-02 01:42:00,29.0,-99.9,-100.00,NNE,20,3.0,4.0,-999,0.00,,,0.00,,2013-04-02 06:42:00,
2013-04-02 01:52:00,29.0,-99.9,-100.00,NNE,20,3.0,4.0,-999,0.00,,,0.00,,2013-04-02 06:52:00,
2013-04-02 02:02:00,28.0,-99.9,-100.00,NW,304,1.0,2.0,-999,0.00,,,0.00,,2013-04-02 07:02:00,
2013-04-02 02:13:00,28.0,-99.9,-100.00,NW,304,1.0,2.0,-999,0.00,,,0.00,,2013-04-02 07:13:00,
2013-04-02 02:22:00,28.0,-99.9,-100.00,NW,304,1.0,2.0,-999,0.00,,,0.00,,2013-04-02 07:22:00,
2013-04-02 03:02:00,27.0,-99.9,-100.00,WSW,254,2.0,4.0,-999,0.00,,,0.00,,2013-04-02 08:02:00,
2013-04-02 03:14:00,27.0,-99.9,-100.00,WSW,254,2.0,4.0,-999,0.00,,,0.00,,2013-04-02 08:14:00,
2013-04-02 03:23:00,27.0,-99.9,-100.00,WSW,254,2.0,4.0,-999,0.00,,,0.00,,2013-04-02 08:23:00,
2013-04-02 03:33:00,27.0,-99.9,-100.00,West,265,2.0,4.0,-999,0.00,,,0.00,,2013-04-02 08:33:00,
2013-04-02 03:43:00,27.0,-99.9,-100.00,West,265,2.0,4.0,-999,0.00,,,0.00,,2013-04-02 08:43:00,
2013-04-02 03:53:00,27.0,-99.9,-100.00,West,265,2.0,4.0,-999,0.00,,,0.00,,2013-04-02 08:53:00,
2013-04-02 04:02:00,26.0,-99.9,-100.00,WSW,246,2.0,4.0,-999,0.00,,,0.00,,2013-04-02 09:02:00,
2013-04-02 04:13:00,26.0,-99.9,-100.00,WSW,246,2.0,4.0,-999,0.00,,,0.00,,2013-04-02 09:13:00,
2013-04-02 04:23:00,26.0,-99.9,-100.00,WSW,246,2.0,4.0,-999,0.00,,,0.00,,2013-04-02 09:23:00,
2013-04-02 04:33:00,26.0,-99.9,-100.00,WSW,243,3.0,3.0,-999,0.00,,,0.00,,2013-04-02 09:33:00,
2013-04-02 04:43:00,26.0,-99.9,-100.00,WSW,243,3.0,3.0,-999,0.00,,,0.00,,2013-04-02 09:43:00,
2013-04-02 04:53:00,26.0,-99.9,-100.00,WSW,243,3.0,3.0,-999,0.00,,,0.00,,2013-04-02 09:53:00,
2013-04-02 05:04:00,26.0,-99.9,-100.00,WSW,256,5.0,5.0,-999,0.00,,,0.00,,2013-04-02 10:04:00,
2013-04-02 05:13:00,26.0,-99.9,-100.00,WSW,256,5.0,5.0,-999,0.00,,,0.00,,2013-04-02 10:13:00,
2013-04-02 05:24:00,26.0,-99.9,-100.00,WSW,256,5.0,5.0,-999,0.00,,,0.00,,2013-04-02 10:24:00,
2013-04-02 05:33:00,25.0,-99.9,-100.00,West,261,6.0,7.0,-999,0.00,,,0.00,,2013-04-02 10:33:00,
2013-04-02 05:43:00,25.0,-99.9,-100.00,West,261,6.0,7.0,-999,0.00,,,0.00,,2013-04-02 10:43:00,
2013-04-02 05:53:00,25.0,-99.9,-100.00,West,261,6.0,7.0,-999,0.00,,,0.00,,2013-04-02 10:53:00,
2013-04-02 06:03:00,26.0,-99.9,-100.00,West,266,3.0,5.0,-999,0.00,,,0.00,,2013-04-02 11:03:00,
2013-04-02 06:12:00,26.0,-99.9,-100.00,West,266,3.0,5.0,-999,0.00,,,0.00,,2013-04-02 11:12:00,
2013-04-02 06:23:00,26.0,-99.9,-100.00,West,266,3.0,5.0,-999,0.00,,,0.00,,2013-04-02 11:23:00,
2013-04-02 06:30:00,25.0,-99.9,-100.00,WSW,246,4.0,6.0,-999,0.00,,,0.00,,2013-04-02 11:30:00,
2013-04-02 06:33:00,25.0,-99.9,-100.00,West,264,4.0,7.0,-999,0.00,,,0.00,,2013-04-02 11:33:00,
2013-04-02 06:43:00,25.0,-99.9,-100.00,West,264,4.0,7.0,-999,0.00,,,0.00,,2013-04-02 11:43:00,
2013-04-02 06:53:00,25.0,-99.9,-100.00,West,264,4.0,7.0,-999,0.00,,,0.00,,2013-04-02 11:53:00,
2013-04-02 07:02:00,25.0,-99.9,-100.00,WSW,246,4.0,6.0,-999,0.00,,,0.00,,2013-04-02 12:02:00,
2013-04-02 07:12:00,25.0,-99.9,-100.00,WSW,246,4.0,6.0,-999,0.00,,,0.00,,2013-04-02 12:12:00,
2013-04-02 07:23:00,25.0,-99.9,-100.00,WSW,246,4.0,6.0,-999,0.00,,,0.00,,2013-04-02 12:23:00,
2013-04-02 08:02:00,26.0,-99.9,-100.00,WSW,252,4.0,5.0,-999,0.00,,,0.00,,2013-04-02 13:02:00,
2013-04-02 08:12:00,26.0,-99.9,-100.00,WSW,252,4.0,5.0,-999,0.00,,,0.00,,2013-04-02 13:12:00,
2013-04-02 08:23:00,26.0,-99.9,-100.00,WSW,252,4.0,5.0,-999,0.00,,,0.00,,2013-04-02 13:23:00,
2013-04-02 08:33:00,28.0,-99.9,-100.00,West,261,3.0,6.0,-999,0.00,,,0.00,,2013-04-02 13:33:00,
2013-04-02 08:43:00,28.0,-99.9,-100.00,West,261,3.0,6.0,-999,0.00,,,0.00,,2013-04-02 13:43:00,
2013-04-02 08:53:00,28.0,-99.9,-100.00,West,261,3.0,6.0,-999,0.00,,,0.00,,2013-04-02 13:53:00,
2013-04-02 09:02:00,29.0,-99.9,-100.00,WNW,284,3.0,6.0,-999,0.00,,,0.00,,2013-04-02 14:02:00,
2013-04-02 09:13:00,29.0,-99.9,-100.00,WNW,284,3.0,6.0,-999,0.00,,,0.00,,2013-04-02 14:13:00,
2013-04-02 09:23:00,29.0,-99.9,-100.00,WNW,284,3.0,6.0,-999,0.00,,,0.00,,2013-04-02 14:23:00,
2013-04-02 09:33:00,31.0,-99.9,-100.00,WNW,293,3.0,6.0,-999,0.00,,,0.00,,2013-04-02 14:33:00,
2013-04-02 09:43:00,31.0,-99.9,-100.00,WNW,293,3.0,6.0,-999,0.00,,,0.00,,2013-04-02 14:43:00,
2013-04-02 09:52:00,31.0,-99.9,-100.00,WNW,293,3.0,6.0,-999,0.00,,,0.00,,2013-04-02 14:52:00,
2013-04-02 10:02:00,32.0,-99.9,-100.00,WSW,244,4.0,6.0,-999,0.00,,,0.00,,2013-04-02 15:02:00,
2013-04-02 10:12:00,32.0,-99.9,-100.00,WSW,244,4.0,6.0,-999,0.00,,,0.00,,2013-04-02 15:12:00,
2013-04-02 10:23:00,32.0,-99.9,-100.00,WSW,244,4.0,6.0,-999,0.00,,,0.00,,2013-04-02 15:23:00,
2013-04-02 10:34:00,34.0,-99.9,-100.00,SSW,212,4.0,6.0,-999,0.00,,,0.00,,2013-04-02 15:34:00,
2013-04-02 10:43:00,34.0,-99.9,-100.00,SSW,212,4.0,6.0,-999,0.00,,,0.00,,2013-04-02 15:43:00,
2013-04-02 10:58:00,34.0,-99.9,-100.00,SSW,212,4.0,6.0,-999,0.00,,,0.00,,2013-04-02 15:58:00,
2013-04-02 11:04:00,34.0,-99.9,-100.00,WNW,300,3.0,7.0,-999,0.00,,,0.00,,2013-04-02 16:04:00,
2013-04-02 11:14:00,34.0,-99.9,-100.00,WNW,300,3.0,7.0,-999,0.00,,,0.00,,2013-04-02 16:14:00,
2013-04-02 11:25:00,34.0,-99.9,-100.00,WNW,300,3.0,7.0,-999,0.00,,,0.00,,2013-04-02 16:25:00,
2013-04-02 11:40:00,36.0,-99.9,-100.00,WSW,237,4.0,8.0,-999,0.00,,,0.00,,2013-04-02 16:40:00,
2013-04-02 11:54:00,36.0,-99.9,-100.00,WSW,237,4.0,8.0,-999,0.00,,,0.00,,2013-04-02 16:54:00,
2013-04-02 12:07:00,37.0,-99.9,-100.00,WNW,285,7.0,12.0,-999,0.00,,,0.00,,2013-04-02 17:07:00,
2013-04-02 12:14:00,37.0,-99.9,-100.00,WNW,285,7.0,12.0,-999,0.00,,,0.00,,2013-04-02 17:14:00,
2013-04-02 12:25:00,37.0,-99.9,-100.00,WNW,285,7.0,12.0,-999,0.00,,,0.00,,2013-04-02 17:25:00,
2013-04-02 12:30:00,40.0,-99.9,-100.00,West,277,7.0,12.0,-999,0.00,,,0.00,,2013-04-02 17:30:00,
2013-04-02 12:35:00,39.0,-99.9,-100.00,West,268,4.0,10.0,-999,0.00,,,0.00,,2013-04-02 17:35:00,
2013-04-02 12:44:00,39.0,-99.9,-100.00,West,268,4.0,10.0,-999,0.00,,,0.00,,2013-04-02 17:44:00,
2013-04-02 12:57:00,39.0,-99.9,-100.00,West,268,4.0,10.0,-999,0.00,,,0.00,,2013-04-02 17:57:00,
2013-04-02 13:05:00,40.0,-99.9,-100.00,West,277,7.0,12.0,-999,0.00,,,0.00,,2013-04-02 18:05:00,
2013-04-02 13:13:00,40.0,-99.9,-100.00,West,277,7.0,12.0,-999,0.00,,,0.00,,2013-04-02 18:13:00,
2013-04-02 13:24:00,40.0,-99.9,-100.00,West,277,7.0,12.0,-999,0.00,,,0.00,,2013-04-02 18:24:00,
2013-04-02 13:43:00,41.0,-99.9,-100.00,WNW,293,9.0,12.0,-999,0.00,,,0.00,,2013-04-02 18:43:00,
2013-04-02 13:58:00,41.0,-99.9,-100.00,WNW,293,9.0,12.0,-999,0.00,,,0.00,,2013-04-02 18:58:00,
2013-04-02 14:00:00,41.0,-99.9,-100.00,West,273,11.0,16.0,-999,0.00,,,0.00,,2013-04-02 19:00:00,
2013-04-02 14:03:00,40.0,-99.9,-100.00,West,280,10.0,15.0,-999,0.00,,,0.00,,2013-04-02 19:03:00,
2013-04-02 14:13:00,40.0,-99.9,-100.00,West,280,10.0,15.0,-999,0.00,,,0.00,,2013-04-02 19:13:00,
2013-04-02 14:23:00,40.0,-99.9,-100.00,West,280,10.0,15.0,-999,0.00,,,0.00,,2013-04-02 19:23:00,
2013-04-02 14:35:00,41.0,-99.9,-100.00,West,273,11.0,16.0,-999,0.00,,,0.00,,2013-04-02 19:35:00,
2013-04-02 14:48:00,41.0,-99.9,-100.00,West,273,11.0,16.0,-999,0.00,,,0.00,,2013-04-02 19:48:00,
2013-04-02 14:57:00,41.0,-99.9,-100.00,West,273,11.0,16.0,-999,0.00,,,0.00,,2013-04-02 19:57:00,
2013-04-02 15:14:00,43.0,-99.9,-100.00,WSW,256,14.0,23.0,-999,0.00,,,0.00,,2013-04-02 20:14:00,
2013-04-02 15:23:00,43.0,-99.9,-100.00,WSW,256,14.0,23.0,-999,0.00,,,0.00,,2013-04-02 20:23:00,
2013-04-02 15:30:00,42.0,-99.9,-100.00,NW,308,9.0,15.0,-999,0.00,,,0.00,,2013-04-02 20:30:00,
2013-04-02 15:34:00,42.0,-99.9,-100.00,WNW,291,11.0,17.0,-999,0.00,,,0.00,,2013-04-02 20:34:00,
2013-04-02 15:45:00,42.0,-99.9,-100.00,WNW,291,11.0,17.0,-999,0.00,,,0.00,,2013-04-02 20:45:00,
2013-04-02 15:55:00,42.0,-99.9,-100.00,WNW,291,11.0,17.0,-999,0.00,,,0.00,,2013-04-02 20:55:00,
2013-04-02 16:05:00,42.0,-99.9,-100.00,NW,308,9.0,15.0,-999,0.00,,,0.00,,2013-04-02 21:05:00,
2013-04-02 16:13:00,42.0,-99.9,-100.00,NW,308,9.0,15.0,-999,0.00,,,0.00,,2013-04-02 21:13:00,
2013-04-02 16:23:00,42.0,-99.9,-100.00,NW,308,9.0,15.0,-999,0.00,,,0.00,,2013-04-02 21:23:00,
2013-04-02 17:34:00,43.0,-99.9,-100.00,WNW,289,8.0,11.0,-999,0.00,,,0.00,,2013-04-02 22:34:00,
2013-04-02 17:44:00,43.0,-99.9,-100.00,WNW,289,8.0,11.0,-999,0.00,,,0.00,,2013-04-02 22:44:00,
2013-04-02 17:54:00,43.0,-99.9,-100.00,WNW,289,8.0,11.0,-999,0.00,,,0.00,,2013-04-02 22:54:00,
2013-04-02 18:03:00,43.0,-99.9,-100.00,WNW,283,7.0,13.0,-999,0.00,,,0.00,,2013-04-02 23:03:00,
2013-04-02 18:13:00,43.0,-99.9,-100.00,WNW,283,7.0,13.0,-999,0.00,,,0.00,,2013-04-02 23:13:00,
2013-04-02 18:24:00,43.0,-99.9,-100.00,WNW,283,7.0,13.0,-999,0.00,,,0.00,,2013-04-02 23:24:00,
2013-04-02 18:30:00,41.0,-99.9,-100.00,NNW,331,10.0,16.0,-999,0.00,,,0.00,,2013-04-02 23:30:00,
2013-04-02 18:37:00,42.0,-99.9,-100.00,NW,323,8.0,12.0,-999,0.00,,,0.00,,2013-04-02 23:37:00,
2013-04-02 18:43:00,42.0,-99.9,-100.00,NW,323,8.0,12.0,-999,0.00,,,0.00,,2013-04-02 23:43:00,
2013-04-02 18:55:00,42.0,-99.9,-100.00,NW,323,8.0,12.0,-999,0.00,,,0.00,,2013-04-02 23:55:00,
2013-04-02 19:00:00,40.0,-99.9,-100.00,NW,313,7.0,15.0,-999,0.00,,,0.00,,2013-04-03 00:00:00,
2013-04-02 19:05:00,41.0,-99.9,-100.00,NNW,331,10.0,16.0,-999,0.00,,,0.00,,2013-04-03 00:05:00,
2013-04-02 19:14:00,41.0,-99.9,-100.00,NNW,331,10.0,16.0,-999,0.00,,,0.00,,2013-04-03 00:14:00,
2013-04-02 19:26:00,41.0,-99.9,-100.00,NNW,331,10.0,16.0,-999,0.00,,,0.00,,2013-04-03 00:26:00,
2013-04-02 19:48:00,40.0,-99.9,-100.00,NW,313,7.0,15.0,-999,0.00,,,0.00,,2013-04-03 00:48:00,
2013-04-02 19:58:00,40.0,-99.9,-100.00,NW,313,7.0,15.0,-999,0.00,,,0.00,,2013-04-03 00:58:00,
2013-04-02 20:13:00,39.0,-99.9,-100.00,NW,315,5.0,9.0,-999,0.00,,,0.00,,2013-04-03 01:13:00,
2013-04-02 20:23:00,39.0,-99.9,-100.00,NW,315,5.0,9.0,-999,0.00,,,0.00,,2013-04-03 01:23:00,
2013-04-02 20:34:00,37.0,-99.9,-100.00,WNW,301,5.0,8.0,-999,0.00,,,0.00,,2013-04-03 01:34:00,
2013-04-02 20:43:00,37.0,-99.9,-100.00,WNW,301,5.0,8.0,-999,0.00,,,0.00,,2013-04-03 01:43:00,
2013-04-02 20:54:00,37.0,-99.9,-100.00,WNW,301,5.0,8.0,-999,0.00,,,0.00,,2013-04-03 01:54:00,
2013-04-02 21:04:00,36.0,-99.9,-100.00,NW,304,4.0,6.0,-999,0.00,,,0.00,,2013-04-03 02:04:00,
2013-04-02 21:14:00,36.0,-99.9,-100.00,NW,304,4.0,6.0,-999,0.00,,,0.00,,2013-04-03 02:14:00,
2013-04-02 21:25:00,36.0,-99.9,-100.00,NW,304,4.0,6.0,-999,0.00,,,0.00,,2013-04-03 02:25:00,
2013-04-02 21:35:00,35.0,-99.9,-100.00,WNW,300,4.0,6.0,-999,0.00,,,0.00,,2013-04-03 02:35:00,
2013-04-02 21:45:00,35.0,-99.9,-100.00,WNW,300,4.0,6.0,-999,0.00,,,0.00,,2013-04-03 02:45:00,
2013-04-02 21:53:00,35.0,-99.9,-100.00,WNW,300,4.0,6.0,-999,0.00,,,0.00,,2013-04-03 02:53:00,
2013-04-02 22:07:00,34.0,-99.9,-100.00,NW,313,4.0,6.0,-999,0.00,,,0.00,,2013-04-03 03:07:00,
2013-04-02 22:14:00,34.0,-99.9,-100.00,NW,313,4.0,6.0,-999,0.00,,,0.00,,2013-04-03 03:14:00,
2013-04-02 22:23:00,34.0,-99.9,-100.00,NW,313,4.0,6.0,-999,0.00,,,0.00,,2013-04-03 03:23:00,
2013-04-02 22:38:00,34.0,-99.9,-100.00,NW,304,4.0,6.0,-999,0.00,,,0.00,,2013-04-03 03:38:00,
2013-04-02 22:44:00,34.0,-99.9,-100.00,NW,304,4.0,6.0,-999,0.00,,,0.00,,2013-04-03 03:44:00,
2013-04-02 22:54:00,34.0,-99.9,-100.00,NW,304,4.0,6.0,-999,0.00,,,0.00,,2013-04-03 03:54:00,
2013-04-02 23:03:00,33.0,-99.9,-100.00,WNW,303,4.0,6.0,-999,0.00,,,0.00,,2013-04-03 04:03:00,
2013-04-02 23:13:00,33.0,-99.9,-100.00,WNW,303,4.0,6.0,-999,0.00,,,0.00,,2013-04-03 04:13:00,
2013-04-02 23:23:00,33.0,-99.9,-100.00,WNW,303,4.0,6.0,-999,0.00,,,0.00,,2013-04-03 04:23:00,
2013-04-02 23:33:00,32.0,-99.9,-100.00,NNW,329,2.0,4.0,-999,0.00,,,0.00,,2013-04-03 04:33:00,
2013-04-02 23:43:00,32.0,-99.9,-100.00,NNW,329,2.0,4.0,-999,0.00,,,0.00,,2013-04-03 04:43:00,
2013-04-02 23:53:00,32.0,-99.9,-100.00,NNW,329,2.0,4.0,-999,0.00,,,0.00,,2013-04-03 04:53:00,